Selawik Airport Selawik US
ICAO: PASK
IATA:
Category: Medium
Scheduled Services:

Elevation: 17 ft
TransAlt. 18000 ft.

Airport Communications:
AWOS 3:135.65
ANCHORAGE CNTR:119.2
CTAF:122.7
KOTZEBUE RDO:122.5
TWEB:114.2

PASK Zoom In..

If you have problems with the map follow the link
https://www.worldairports.se/pages/airport.php?
ICAO=PASK

Runways:

(A) RW 04 length 3002 ft width 60 ft
---- / hdg 37

(B) RW 09 length 2659 ft width 60 ft
---- / hdg 90

(C) RW 22 length 3002 ft width 60 ft
---- / hdg 217

(D) RW 27 length 2659 ft width 60 ft
---- / hdg 270

Location; PASK
Day. 25 / Time. 08.56 Zulu
* Altimeter: 30.22
* Temperature: 6/° c. 42.8°f.
* Wind from: 220° Speed 06 kn.
Dewpoint: //° c.
Visibility: 10 Statute Miles.
Clouds: Clear (automated report).

PASK 250856Z AUTO 22006KT 10SM CLR M28/M31 A3022 RMK AO2 SLP229 6//// T12781306 412561322 53002 FZRANO


Wind From 220°
Speed 06 kn.

 
 
jpsmedia worldairports.se 2020   terms of use